sensor_id;sensor_type;location;lat;lon;timestamp;P1;P2;P0
77974;PMS5003;67164;51.202;0.278;2023-03-03T00:00:38;4;4;
77974;PMS5003;67164;51.202;0.278;2023-03-03T00:03:05;5;5;
77974;PMS5003;67164;51.202;0.278;2023-03-03T00:05:30;3;3;
77974;PMS5003;67164;51.202;0.278;2023-03-03T00:07:56;3;3;
77974;PMS5003;67164;51.202;0.278;2023-03-03T00:10:22;5;4;
77974;PMS5003;67164;51.202;0.278;2023-03-03T00:12:48;4;3;
77974;PMS5003;67164;51.202;0.278;2023-03-03T00:15:14;4;4;
77974;PMS5003;67164;51.202;0.278;2023-03-03T00:17:39;3;3;
77974;PMS5003;67164;51.202;0.278;2023-03-03T00:22:34;5;3;
77974;PMS5003;67164;51.202;0.278;2023-03-03T00:24:57;4;4;
77974;PMS5003;67164;51.202;0.278;2023-03-03T00:27:25;4;4;
77974;PMS5003;67164;51.202;0.278;2023-03-03T00:29:49;7;6;
77974;PMS5003;67164;51.202;0.278;2023-03-03T00:32:18;5;5;
77974;PMS5003;67164;51.202;0.278;2023-03-03T00:34:40;7;7;
77974;PMS5003;67164;51.202;0.278;2023-03-03T00:37:10;7;6;
77974;PMS5003;67164;51.202;0.278;2023-03-03T00:39:32;6;5;
77974;PMS5003;67164;51.202;0.278;2023-03-03T00:41:58;4;4;
77974;PMS5003;67164;51.202;0.278;2023-03-03T00:46:49;6;5;
77974;PMS5003;67164;51.202;0.278;2023-03-03T00:49:18;8;8;
77974;PMS5003;67164;51.202;0.278;2023-03-03T00:51:41;6;6;
77974;PMS5003;67164;51.202;0.278;2023-03-03T00:54:07;7;7;
77974;PMS5003;67164;51.202;0.278;2023-03-03T00:56:33;9;8;
77974;PMS5003;67164;51.202;0.278;2023-03-03T00:58:58;10;7;
77974;PMS5003;67164;51.202;0.278;2023-03-03T01:01:24;10;7;
77974;PMS5003;67164;51.202;0.278;2023-03-03T01:03:50;7;7;
77974;PMS5003;67164;51.202;0.278;2023-03-03T01:06:16;7;7;
77974;PMS5003;67164;51.202;0.278;2023-03-03T01:08:42;7;7;
77974;PMS5003;67164;51.202;0.278;2023-03-03T01:11:08;7;7;
77974;PMS5003;67164;51.202;0.278;2023-03-03T01:13:34;7;7;
77974;PMS5003;67164;51.202;0.278;2023-03-03T01:15:59;9;9;
77974;PMS5003;67164;51.202;0.278;2023-03-03T01:18:25;8;7;
77974;PMS5003;67164;51.202;0.278;2023-03-03T01:20:51;9;7;
77974;PMS5003;67164;51.202;0.278;2023-03-03T01:23:17;9;8;
77974;PMS5003;67164;51.202;0.278;2023-03-03T01:25:43;7;7;
77974;PMS5003;67164;51.202;0.278;2023-03-03T01:28:08;8;8;
77974;PMS5003;67164;51.202;0.278;2023-03-03T01:30:34;12;11;
77974;PMS5003;67164;51.202;0.278;2023-03-03T01:33:00;12;9;
77974;PMS5003;67164;51.202;0.278;2023-03-03T01:35:26;7;7;
77974;PMS5003;67164;51.202;0.278;2023-03-03T01:37:52;8;8;
77974;PMS5003;67164;51.202;0.278;2023-03-03T01:40:19;9;8;
77974;PMS5003;67164;51.202;0.278;2023-03-03T01:42:43;10;10;
77974;PMS5003;67164;51.202;0.278;2023-03-03T01:45:12;8;8;
77974;PMS5003;67164;51.202;0.278;2023-03-03T01:47:35;7;7;
77974;PMS5003;67164;51.202;0.278;2023-03-03T01:50:02;8;7;
77974;PMS5003;67164;51.202;0.278;2023-03-03T01:52:29;9;8;
77974;PMS5003;67164;51.202;0.278;2023-03-03T01:54:54;8;8;
77974;PMS5003;67164;51.202;0.278;2023-03-03T01:57:20;11;11;
77974;PMS5003;67164;51.202;0.278;2023-03-03T01:59:46;11;10;
77974;PMS5003;67164;51.202;0.278;2023-03-03T02:02:10;9;6;
77974;PMS5003;67164;51.202;0.278;2023-03-03T02:04:36;7;7;
77974;PMS5003;67164;51.202;0.278;2023-03-03T02:07:04;7;7;
77974;PMS5003;67164;51.202;0.278;2023-03-03T02:09:29;8;8;
77974;PMS5003;67164;51.202;0.278;2023-03-03T02:11:54;11;9;
77974;PMS5003;67164;51.202;0.278;2023-03-03T02:14:19;9;9;
77974;PMS5003;67164;51.202;0.278;2023-03-03T02:16:45;9;9;
77974;PMS5003;67164;51.202;0.278;2023-03-03T02:19:12;11;10;
77974;PMS5003;67164;51.202;0.278;2023-03-03T02:21:37;8;8;
77974;PMS5003;67164;51.202;0.278;2023-03-03T02:24:04;7;7;
77974;PMS5003;67164;51.202;0.278;2023-03-03T02:26:29;10;8;
77974;PMS5003;67164;51.202;0.278;2023-03-03T02:28:54;9;7;
77974;PMS5003;67164;51.202;0.278;2023-03-03T02:31:21;9;9;
77974;PMS5003;67164;51.202;0.278;2023-03-03T02:33:46;9;8;
77974;PMS5003;67164;51.202;0.278;2023-03-03T02:36:12;11;11;
77974;PMS5003;67164;51.202;0.278;2023-03-03T02:38:39;7;7;
77974;PMS5003;67164;51.202;0.278;2023-03-03T02:41:06;7;7;
77974;PMS5003;67164;51.202;0.278;2023-03-03T02:43:30;10;10;
77974;PMS5003;67164;51.202;0.278;2023-03-03T02:45:55;11;10;
77974;PMS5003;67164;51.202;0.278;2023-03-03T02:48:21;9;9;
77974;PMS5003;67164;51.202;0.278;2023-03-03T02:50:46;9;7;
77974;PMS5003;67164;51.202;0.278;2023-03-03T02:53:12;12;10;
77974;PMS5003;67164;51.202;0.278;2023-03-03T02:55:38;9;9;
77974;PMS5003;67164;51.202;0.278;2023-03-03T02:58:04;9;8;
77974;PMS5003;67164;51.202;0.278;2023-03-03T03:00:30;9;8;
77974;PMS5003;67164;51.202;0.278;2023-03-03T03:02:56;10;10;
77974;PMS5003;67164;51.202;0.278;2023-03-03T03:05:21;12;9;
77974;PMS5003;67164;51.202;0.278;2023-03-03T03:07:47;9;8;
77974;PMS5003;67164;51.202;0.278;2023-03-03T03:10:13;11;11;
77974;PMS5003;67164;51.202;0.278;2023-03-03T03:12:38;11;9;
77974;PMS5003;67164;51.202;0.278;2023-03-03T03:15:05;9;9;
77974;PMS5003;67164;51.202;0.278;2023-03-03T03:17:30;10;10;
77974;PMS5003;67164;51.202;0.278;2023-03-03T03:19:56;11;8;
77974;PMS5003;67164;51.202;0.278;2023-03-03T03:22:22;13;11;
77974;PMS5003;67164;51.202;0.278;2023-03-03T03:24:48;9;9;
77974;PMS5003;67164;51.202;0.278;2023-03-03T03:27:13;12;12;
77974;PMS5003;67164;51.202;0.278;2023-03-03T03:29:39;7;7;
77974;PMS5003;67164;51.202;0.278;2023-03-03T03:32:05;15;11;
77974;PMS5003;67164;51.202;0.278;2023-03-03T03:34:31;12;10;
77974;PMS5003;67164;51.202;0.278;2023-03-03T03:36:57;12;9;
77974;PMS5003;67164;51.202;0.278;2023-03-03T03:39:23;9;8;
77974;PMS5003;67164;51.202;0.278;2023-03-03T03:41:48;11;10;
77974;PMS5003;67164;51.202;0.278;2023-03-03T03:44:14;9;9;
77974;PMS5003;67164;51.202;0.278;2023-03-03T03:46:40;9;9;
77974;PMS5003;67164;51.202;0.278;2023-03-03T03:49:06;14;11;
77974;PMS5003;67164;51.202;0.278;2023-03-03T03:51:32;11;11;
77974;PMS5003;67164;51.202;0.278;2023-03-03T03:53:58;10;9;
77974;PMS5003;67164;51.202;0.278;2023-03-03T03:56:24;13;12;
77974;PMS5003;67164;51.202;0.278;2023-03-03T03:58:49;9;8;
77974;PMS5003;67164;51.202;0.278;2023-03-03T04:01:15;12;10;
77974;PMS5003;67164;51.202;0.278;2023-03-03T04:03:41;11;11;
77974;PMS5003;67164;51.202;0.278;2023-03-03T04:06:07;9;8;
77974;PMS5003;67164;51.202;0.278;2023-03-03T04:08:33;10;9;
77974;PMS5003;67164;51.202;0.278;2023-03-03T04:10:59;12;10;
77974;PMS5003;67164;51.202;0.278;2023-03-03T04:13:24;10;9;
77974;PMS5003;67164;51.202;0.278;2023-03-03T04:15:50;9;9;
77974;PMS5003;67164;51.202;0.278;2023-03-03T04:18:16;9;9;
77974;PMS5003;67164;51.202;0.278;2023-03-03T04:20:42;10;8;
77974;PMS5003;67164;51.202;0.278;2023-03-03T04:23:08;9;9;
77974;PMS5003;67164;51.202;0.278;2023-03-03T04:25:33;10;9;
77974;PMS5003;67164;51.202;0.278;2023-03-03T04:27:59;7;7;
77974;PMS5003;67164;51.202;0.278;2023-03-03T04:30:25;9;8;
77974;PMS5003;67164;51.202;0.278;2023-03-03T04:32:51;9;9;
77974;PMS5003;67164;51.202;0.278;2023-03-03T04:35:17;13;10;
77974;PMS5003;67164;51.202;0.278;2023-03-03T04:37:42;12;11;
77974;PMS5003;67164;51.202;0.278;2023-03-03T04:40:09;11;10;
77974;PMS5003;67164;51.202;0.278;2023-03-03T04:42:34;9;9;
77974;PMS5003;67164;51.202;0.278;2023-03-03T04:45:00;9;9;
77974;PMS5003;67164;51.202;0.278;2023-03-03T04:47:26;12;12;
77974;PMS5003;67164;51.202;0.278;2023-03-03T04:49:51;10;8;
77974;PMS5003;67164;51.202;0.278;2023-03-03T04:52:17;10;10;
77974;PMS5003;67164;51.202;0.278;2023-03-03T04:54:43;11;6;
77974;PMS5003;67164;51.202;0.278;2023-03-03T04:57:09;11;9;
77974;PMS5003;67164;51.202;0.278;2023-03-03T04:59:34;11;11;
77974;PMS5003;67164;51.202;0.278;2023-03-03T05:02:00;9;9;
77974;PMS5003;67164;51.202;0.278;2023-03-03T05:04:26;8;7;
77974;PMS5003;67164;51.202;0.278;2023-03-03T05:06:52;9;9;
77974;PMS5003;67164;51.202;0.278;2023-03-03T05:09:18;8;8;
77974;PMS5003;67164;51.202;0.278;2023-03-03T05:11:43;11;10;
77974;PMS5003;67164;51.202;0.278;2023-03-03T05:14:09;10;9;
77974;PMS5003;67164;51.202;0.278;2023-03-03T05:16:35;9;9;
77974;PMS5003;67164;51.202;0.278;2023-03-03T05:19:01;11;9;
77974;PMS5003;67164;51.202;0.278;2023-03-03T05:21:27;10;9;
77974;PMS5003;67164;51.202;0.278;2023-03-03T05:23:53;10;8;
77974;PMS5003;67164;51.202;0.278;2023-03-03T05:26:19;9;7;
77974;PMS5003;67164;51.202;0.278;2023-03-03T05:28:44;10;8;
77974;PMS5003;67164;51.202;0.278;2023-03-03T05:31:10;11;7;
77974;PMS5003;67164;51.202;0.278;2023-03-03T05:33:36;9;9;
77974;PMS5003;67164;51.202;0.278;2023-03-03T05:36:01;9;9;
77974;PMS5003;67164;51.202;0.278;2023-03-03T05:38:27;8;7;
77974;PMS5003;67164;51.202;0.278;2023-03-03T05:40:53;8;8;
77974;PMS5003;67164;51.202;0.278;2023-03-03T05:43:19;9;8;
77974;PMS5003;67164;51.202;0.278;2023-03-03T05:45:45;11;9;
77974;PMS5003;67164;51.202;0.278;2023-03-03T05:48:11;10;9;
77974;PMS5003;67164;51.202;0.278;2023-03-03T05:50:36;12;10;
77974;PMS5003;67164;51.202;0.278;2023-03-03T05:53:02;8;8;
77974;PMS5003;67164;51.202;0.278;2023-03-03T05:55:27;11;8;
77974;PMS5003;67164;51.202;0.278;2023-03-03T05:57:53;10;10;
77974;PMS5003;67164;51.202;0.278;2023-03-03T06:00:19;8;8;
77974;PMS5003;67164;51.202;0.278;2023-03-03T06:02:45;9;8;
77974;PMS5003;67164;51.202;0.278;2023-03-03T06:05:10;9;9;
77974;PMS5003;67164;51.202;0.278;2023-03-03T06:07:36;9;8;
77974;PMS5003;67164;51.202;0.278;2023-03-03T06:10:03;8;8;
77974;PMS5003;67164;51.202;0.278;2023-03-03T06:12:28;9;8;
77974;PMS5003;67164;51.202;0.278;2023-03-03T06:14:54;10;8;
77974;PMS5003;67164;51.202;0.278;2023-03-03T06:17:20;9;9;
77974;PMS5003;67164;51.202;0.278;2023-03-03T06:19:46;7;7;
77974;PMS5003;67164;51.202;0.278;2023-03-03T06:22:11;10;9;
77974;PMS5003;67164;51.202;0.278;2023-03-03T06:24:37;6;6;
77974;PMS5003;67164;51.202;0.278;2023-03-03T06:27:03;11;8;
77974;PMS5003;67164;51.202;0.278;2023-03-03T06:29:29;7;7;
77974;PMS5003;67164;51.202;0.278;2023-03-03T06:31:55;9;9;
77974;PMS5003;67164;51.202;0.278;2023-03-03T06:34:21;10;8;
77974;PMS5003;67164;51.202;0.278;2023-03-03T06:36:46;7;7;
77974;PMS5003;67164;51.202;0.278;2023-03-03T06:39:12;9;9;
77974;PMS5003;67164;51.202;0.278;2023-03-03T06:41:38;7;7;
77974;PMS5003;67164;51.202;0.278;2023-03-03T06:44:04;9;9;
77974;PMS5003;67164;51.202;0.278;2023-03-03T06:46:30;8;8;
77974;PMS5003;67164;51.202;0.278;2023-03-03T06:48:56;8;8;
77974;PMS5003;67164;51.202;0.278;2023-03-03T06:51:22;9;8;
77974;PMS5003;67164;51.202;0.278;2023-03-03T06:53:47;8;8;
77974;PMS5003;67164;51.202;0.278;2023-03-03T06:56:13;9;7;
77974;PMS5003;67164;51.202;0.278;2023-03-03T06:58:39;10;10;
77974;PMS5003;67164;51.202;0.278;2023-03-03T07:01:09;6;6;
77974;PMS5003;67164;51.202;0.278;2023-03-03T07:03:31;7;7;
77974;PMS5003;67164;51.202;0.278;2023-03-03T07:05:58;8;6;
77974;PMS5003;67164;51.202;0.278;2023-03-03T07:08:23;6;6;
77974;PMS5003;67164;51.202;0.278;2023-03-03T07:10:49;6;6;
77974;PMS5003;67164;51.202;0.278;2023-03-03T07:13:16;9;7;
77974;PMS5003;67164;51.202;0.278;2023-03-03T07:15:40;8;7;
77974;PMS5003;67164;51.202;0.278;2023-03-03T07:18:07;7;5;
77974;PMS5003;67164;51.202;0.278;2023-03-03T07:20:32;7;7;
77974;PMS5003;67164;51.202;0.278;2023-03-03T07:22:57;7;7;
77974;PMS5003;67164;51.202;0.278;2023-03-03T07:25:25;6;6;
77974;PMS5003;67164;51.202;0.278;2023-03-03T07:27:49;7;7;
77974;PMS5003;67164;51.202;0.278;2023-03-03T07:30:23;7;7;
77974;PMS5003;67164;51.202;0.278;2023-03-03T07:32:41;4;4;
77974;PMS5003;67164;51.202;0.278;2023-03-03T07:35:07;8;8;
77974;PMS5003;67164;51.202;0.278;2023-03-03T07:37:34;6;6;
77974;PMS5003;67164;51.202;0.278;2023-03-03T07:39:58;6;5;
77974;PMS5003;67164;51.202;0.278;2023-03-03T07:42:25;6;5;
77974;PMS5003;67164;51.202;0.278;2023-03-03T07:44:50;5;4;
77974;PMS5003;67164;51.202;0.278;2023-03-03T07:47:18;5;5;
77974;PMS5003;67164;51.202;0.278;2023-03-03T07:49:41;7;5;
77974;PMS5003;67164;51.202;0.278;2023-03-03T07:54:34;8;7;
77974;PMS5003;67164;51.202;0.278;2023-03-03T07:57:01;7;6;
77974;PMS5003;67164;51.202;0.278;2023-03-03T07:59:25;6;5;
77974;PMS5003;67164;51.202;0.278;2023-03-03T08:01:51;3;3;
77974;PMS5003;67164;51.202;0.278;2023-03-03T08:04:18;5;4;
77974;PMS5003;67164;51.202;0.278;2023-03-03T08:06:44;5;5;
77974;PMS5003;67164;51.202;0.278;2023-03-03T08:11:34;7;6;
77974;PMS5003;67164;51.202;0.278;2023-03-03T08:14:00;6;6;
77974;PMS5003;67164;51.202;0.278;2023-03-03T08:16:30;6;6;
77974;PMS5003;67164;51.202;0.278;2023-03-03T08:18:51;5;5;
77974;PMS5003;67164;51.202;0.278;2023-03-03T08:21:18;6;6;
77974;PMS5003;67164;51.202;0.278;2023-03-03T08:23:43;8;7;
77974;PMS5003;67164;51.202;0.278;2023-03-03T08:26:09;7;6;
77974;PMS5003;67164;51.202;0.278;2023-03-03T08:28:35;7;5;
77974;PMS5003;67164;51.202;0.278;2023-03-03T08:31:01;7;7;
77974;PMS5003;67164;51.202;0.278;2023-03-03T08:33:27;7;6;
77974;PMS5003;67164;51.202;0.278;2023-03-03T08:35:52;5;5;
77974;PMS5003;67164;51.202;0.278;2023-03-03T08:38:19;4;4;
77974;PMS5003;67164;51.202;0.278;2023-03-03T08:40:44;5;5;
77974;PMS5003;67164;51.202;0.278;2023-03-03T08:43:10;4;4;
77974;PMS5003;67164;51.202;0.278;2023-03-03T08:45:36;3;3;
77974;PMS5003;67164;51.202;0.278;2023-03-03T08:48:02;3;3;
77974;PMS5003;67164;51.202;0.278;2023-03-03T08:50:28;5;5;
77974;PMS5003;67164;51.202;0.278;2023-03-03T08:52:53;4;4;
77974;PMS5003;67164;51.202;0.278;2023-03-03T08:55:19;5;3;
77974;PMS5003;67164;51.202;0.278;2023-03-03T08:57:45;3;3;
77974;PMS5003;67164;51.202;0.278;2023-03-03T09:00:12;4;3;
77974;PMS5003;67164;51.202;0.278;2023-03-03T09:02:37;5;3;
77974;PMS5003;67164;51.202;0.278;2023-03-03T09:05:02;10;5;
77974;PMS5003;67164;51.202;0.278;2023-03-03T09:07:28;4;4;
77974;PMS5003;67164;51.202;0.278;2023-03-03T09:09:54;4;4;
77974;PMS5003;67164;51.202;0.278;2023-03-03T09:12:21;2;2;
77974;PMS5003;67164;51.202;0.278;2023-03-03T09:14:46;2;2;
77974;PMS5003;67164;51.202;0.278;2023-03-03T09:17:18;4;4;
77974;PMS5003;67164;51.202;0.278;2023-03-03T09:19:37;9;4;
77974;PMS5003;67164;51.202;0.278;2023-03-03T09:24:34;5;4;
77974;PMS5003;67164;51.202;0.278;2023-03-03T09:26:55;4;4;
77974;PMS5003;67164;51.202;0.278;2023-03-03T09:29:23;3;2;
77974;PMS5003;67164;51.202;0.278;2023-03-03T09:31:47;5;5;
77974;PMS5003;67164;51.202;0.278;2023-03-03T09:34:15;7;4;
77974;PMS5003;67164;51.202;0.278;2023-03-03T09:36:38;5;4;
77974;PMS5003;67164;51.202;0.278;2023-03-03T09:39:10;3;3;
77974;PMS5003;67164;51.202;0.278;2023-03-03T09:41:38;5;5;
77974;PMS5003;67164;51.202;0.278;2023-03-03T09:44:02;3;3;
77974;PMS5003;67164;51.202;0.278;2023-03-03T09:46:24;5;5;
77974;PMS5003;67164;51.202;0.278;2023-03-03T09:48:50;7;5;
77974;PMS5003;67164;51.202;0.278;2023-03-03T09:51:17;5;5;
77974;PMS5003;67164;51.202;0.278;2023-03-03T09:53:42;5;5;
77974;PMS5003;67164;51.202;0.278;2023-03-03T09:56:07;3;3;
77974;PMS5003;67164;51.202;0.278;2023-03-03T09:58:34;7;5;
77974;PMS5003;67164;51.202;0.278;2023-03-03T10:00:58;4;4;
77974;PMS5003;67164;51.202;0.278;2023-03-03T10:03:30;3;3;
77974;PMS5003;67164;51.202;0.278;2023-03-03T10:05:49;4;3;
77974;PMS5003;67164;51.202;0.278;2023-03-03T10:08:19;4;4;
77974;PMS5003;67164;51.202;0.278;2023-03-03T10:10:43;5;3;
77974;PMS5003;67164;51.202;0.278;2023-03-03T10:13:10;6;3;
77974;PMS5003;67164;51.202;0.278;2023-03-03T10:15:35;5;4;
77974;PMS5003;67164;51.202;0.278;2023-03-03T10:18:00;5;5;
77974;PMS5003;67164;51.202;0.278;2023-03-03T10:20:26;4;4;
77974;PMS5003;67164;51.202;0.278;2023-03-03T10:22:51;2;2;
77974;PMS5003;67164;51.202;0.278;2023-03-03T10:25:18;6;4;
77974;PMS5003;67164;51.202;0.278;2023-03-03T10:27:45;3;3;
77974;PMS5003;67164;51.202;0.278;2023-03-03T10:30:08;3;3;
77974;PMS5003;67164;51.202;0.278;2023-03-03T10:32:34;3;3;
77974;PMS5003;67164;51.202;0.278;2023-03-03T10:35:03;1;1;
77974;PMS5003;67164;51.202;0.278;2023-03-03T10:37:27;11;8;
77974;PMS5003;67164;51.202;0.278;2023-03-03T10:39:55;81;49;
77974;PMS5003;67164;51.202;0.278;2023-03-03T10:42:18;76;55;
77974;PMS5003;67164;51.202;0.278;2023-03-03T10:44:44;70;48;
77974;PMS5003;67164;51.202;0.278;2023-03-03T10:47:15;56;45;
77974;PMS5003;67164;51.202;0.278;2023-03-03T10:49:35;55;43;
77974;PMS5003;67164;51.202;0.278;2023-03-03T10:52:05;54;40;
77974;PMS5003;67164;51.202;0.278;2023-03-03T10:54:25;62;40;
77974;PMS5003;67164;51.202;0.278;2023-03-03T10:56:48;51;36;
77974;PMS5003;67164;51.202;0.278;2023-03-03T10:59:18;39;31;
77974;PMS5003;67164;51.202;0.278;2023-03-03T11:01:42;44;31;
77974;PMS5003;67164;51.202;0.278;2023-03-03T11:04:09;37;29;
77974;PMS5003;67164;51.202;0.278;2023-03-03T11:06:32;38;24;
77974;PMS5003;67164;51.202;0.278;2023-03-03T11:08:57;35;25;
77974;PMS5003;67164;51.202;0.278;2023-03-03T11:11:23;24;20;
77974;PMS5003;67164;51.202;0.278;2023-03-03T11:13:48;36;21;
77974;PMS5003;67164;51.202;0.278;2023-03-03T11:16:18;24;20;
77974;PMS5003;67164;51.202;0.278;2023-03-03T11:18:42;21;19;
77974;PMS5003;67164;51.202;0.278;2023-03-03T11:21:07;21;15;
77974;PMS5003;67164;51.202;0.278;2023-03-03T11:23:34;22;18;
77974;PMS5003;67164;51.202;0.278;2023-03-03T11:25:56;15;13;
77974;PMS5003;67164;51.202;0.278;2023-03-03T11:28:22;16;16;
77974;PMS5003;67164;51.202;0.278;2023-03-03T11:30:48;18;14;
77974;PMS5003;67164;51.202;0.278;2023-03-03T11:33:11;16;13;
77974;PMS5003;67164;51.202;0.278;2023-03-03T11:35:38;20;14;
77974;PMS5003;67164;51.202;0.278;2023-03-03T11:38:05;13;12;
77974;PMS5003;67164;51.202;0.278;2023-03-03T11:40:29;16;12;
77974;PMS5003;67164;51.202;0.278;2023-03-03T11:42:56;12;12;
77974;PMS5003;67164;51.202;0.278;2023-03-03T11:45:19;13;12;
77974;PMS5003;67164;51.202;0.278;2023-03-03T11:47:46;11;8;
77974;PMS5003;67164;51.202;0.278;2023-03-03T11:50:11;11;8;
77974;PMS5003;67164;51.202;0.278;2023-03-03T11:52:37;11;9;
77974;PMS5003;67164;51.202;0.278;2023-03-03T11:55:03;9;8;
77974;PMS5003;67164;51.202;0.278;2023-03-03T11:57:28;9;9;
77974;PMS5003;67164;51.202;0.278;2023-03-03T11:59:59;8;8;
77974;PMS5003;67164;51.202;0.278;2023-03-03T12:02:30;14;11;
77974;PMS5003;67164;51.202;0.278;2023-03-03T12:04:45;14;12;
77974;PMS5003;67164;51.202;0.278;2023-03-03T12:07:13;13;10;
77974;PMS5003;67164;51.202;0.278;2023-03-03T12:09:39;12;9;
77974;PMS5003;67164;51.202;0.278;2023-03-03T12:12:02;17;11;
77974;PMS5003;67164;51.202;0.278;2023-03-03T12:14:36;13;10;
77974;PMS5003;67164;51.202;0.278;2023-03-03T12:16:54;10;10;
77974;PMS5003;67164;51.202;0.278;2023-03-03T12:19:23;12;9;
77974;PMS5003;67164;51.202;0.278;2023-03-03T12:21:48;13;10;
77974;PMS5003;67164;51.202;0.278;2023-03-03T12:24:14;15;10;
77974;PMS5003;67164;51.202;0.278;2023-03-03T12:26:37;15;12;
77974;PMS5003;67164;51.202;0.278;2023-03-03T12:29:03;12;10;
77974;PMS5003;67164;51.202;0.278;2023-03-03T12:31:29;8;8;
77974;PMS5003;67164;51.202;0.278;2023-03-03T12:33:54;13;9;
77974;PMS5003;67164;51.202;0.278;2023-03-03T12:36:23;11;8;
77974;PMS5003;67164;51.202;0.278;2023-03-03T12:38:46;12;8;
77974;PMS5003;67164;51.202;0.278;2023-03-03T12:41:11;10;7;
77974;PMS5003;67164;51.202;0.278;2023-03-03T12:43:40;8;7;
77974;PMS5003;67164;51.202;0.278;2023-03-03T12:46:04;11;7;
77974;PMS5003;67164;51.202;0.278;2023-03-03T12:48:31;10;9;
77974;PMS5003;67164;51.202;0.278;2023-03-03T12:50:55;7;7;
77974;PMS5003;67164;51.202;0.278;2023-03-03T12:53:23;7;5;
77974;PMS5003;67164;51.202;0.278;2023-03-03T12:55:47;9;8;
77974;PMS5003;67164;51.202;0.278;2023-03-03T12:58:11;6;5;
77974;PMS5003;67164;51.202;0.278;2023-03-03T13:00:39;10;5;
77974;PMS5003;67164;51.202;0.278;2023-03-03T13:03:04;8;6;
77974;PMS5003;67164;51.202;0.278;2023-03-03T13:05:29;5;3;
77974;PMS5003;67164;51.202;0.278;2023-03-03T13:07:58;7;5;
77974;PMS5003;67164;51.202;0.278;2023-03-03T13:10:20;5;5;
77974;PMS5003;67164;51.202;0.278;2023-03-03T13:12:46;5;3;
77974;PMS5003;67164;51.202;0.278;2023-03-03T13:15:12;8;6;
77974;PMS5003;67164;51.202;0.278;2023-03-03T13:17:37;6;5;
77974;PMS5003;67164;51.202;0.278;2023-03-03T13:20:07;5;4;
77974;PMS5003;67164;51.202;0.278;2023-03-03T13:22:31;5;5;
77974;PMS5003;67164;51.202;0.278;2023-03-03T13:24:56;5;4;
77974;PMS5003;67164;51.202;0.278;2023-03-03T13:27:21;5;2;
77974;PMS5003;67164;51.202;0.278;2023-03-03T13:29:49;5;5;
77974;PMS5003;67164;51.202;0.278;2023-03-03T13:32:14;7;7;
77974;PMS5003;67164;51.202;0.278;2023-03-03T13:34:39;7;6;
77974;PMS5003;67164;51.202;0.278;2023-03-03T13:37:04;5;5;
77974;PMS5003;67164;51.202;0.278;2023-03-03T13:39:31;12;7;
77974;PMS5003;67164;51.202;0.278;2023-03-03T13:41:56;10;7;
77974;PMS5003;67164;51.202;0.278;2023-03-03T13:44:23;11;7;
77974;PMS5003;67164;51.202;0.278;2023-03-03T13:46:49;24;24;
77974;PMS5003;67164;51.202;0.278;2023-03-03T13:49:17;51;50;
77974;PMS5003;67164;51.202;0.278;2023-03-03T13:51:40;62;62;
77974;PMS5003;67164;51.202;0.278;2023-03-03T13:54:06;83;83;
77974;PMS5003;67164;51.202;0.278;2023-03-03T13:56:33;91;90;
77974;PMS5003;67164;51.202;0.278;2023-03-03T13:58:55;88;88;
77974;PMS5003;67164;51.202;0.278;2023-03-03T14:01:20;89;87;
77974;PMS5003;67164;51.202;0.278;2023-03-03T14:03:48;89;88;
77974;PMS5003;67164;51.202;0.278;2023-03-03T14:06:13;85;85;
77974;PMS5003;67164;51.202;0.278;2023-03-03T14:08:41;83;82;
77974;PMS5003;67164;51.202;0.278;2023-03-03T14:11:05;89;86;
77974;PMS5003;67164;51.202;0.278;2023-03-03T14:13:28;79;77;
77974;PMS5003;67164;51.202;0.278;2023-03-03T14:15:53;81;81;
77974;PMS5003;67164;51.202;0.278;2023-03-03T14:18:22;73;73;
77974;PMS5003;67164;51.202;0.278;2023-03-03T14:20:44;71;69;
77974;PMS5003;67164;51.202;0.278;2023-03-03T14:23:09;76;75;
77974;PMS5003;67164;51.202;0.278;2023-03-03T14:28:01;78;78;
77974;PMS5003;67164;51.202;0.278;2023-03-03T14:30:32;78;78;
77974;PMS5003;67164;51.202;0.278;2023-03-03T14:35:20;64;64;
77974;PMS5003;67164;51.202;0.278;2023-03-03T14:37:41;60;58;
77974;PMS5003;67164;51.202;0.278;2023-03-03T14:40:12;50;50;
77974;PMS5003;67164;51.202;0.278;2023-03-03T14:42:32;47;46;
77974;PMS5003;67164;51.202;0.278;2023-03-03T14:44:57;45;45;
77974;PMS5003;67164;51.202;0.278;2023-03-03T14:47:23;41;38;
77974;PMS5003;67164;51.202;0.278;2023-03-03T14:49:48;35;33;
77974;PMS5003;67164;51.202;0.278;2023-03-03T14:52:20;33;32;
77974;PMS5003;67164;51.202;0.278;2023-03-03T14:54:40;28;28;
77974;PMS5003;67164;51.202;0.278;2023-03-03T14:57:06;31;28;
77974;PMS5003;67164;51.202;0.278;2023-03-03T14:59:29;27;24;
77974;PMS5003;67164;51.202;0.278;2023-03-03T15:02:02;19;19;
77974;PMS5003;67164;51.202;0.278;2023-03-03T15:04:23;21;20;
77974;PMS5003;67164;51.202;0.278;2023-03-03T15:06:45;15;15;
77974;PMS5003;67164;51.202;0.278;2023-03-03T15:11:36;13;13;
77974;PMS5003;67164;51.202;0.278;2023-03-03T15:14:07;17;15;
77974;PMS5003;67164;51.202;0.278;2023-03-03T15:16:29;12;12;
77974;PMS5003;67164;51.202;0.278;2023-03-03T15:18:57;10;10;
77974;PMS5003;67164;51.202;0.278;2023-03-03T15:21:19;12;11;
77974;PMS5003;67164;51.202;0.278;2023-03-03T15:23:48;9;9;
77974;PMS5003;67164;51.202;0.278;2023-03-03T15:26:12;9;8;
77974;PMS5003;67164;51.202;0.278;2023-03-03T15:28:40;11;11;
77974;PMS5003;67164;51.202;0.278;2023-03-03T15:31:05;9;8;
77974;PMS5003;67164;51.202;0.278;2023-03-03T15:33:31;10;8;
77974;PMS5003;67164;51.202;0.278;2023-03-03T15:35:58;5;5;
77974;PMS5003;67164;51.202;0.278;2023-03-03T15:38:24;6;6;
77974;PMS5003;67164;51.202;0.278;2023-03-03T15:40:46;6;6;
77974;PMS5003;67164;51.202;0.278;2023-03-03T15:43:13;5;5;
77974;PMS5003;67164;51.202;0.278;2023-03-03T15:45:39;6;6;
77974;PMS5003;67164;51.202;0.278;2023-03-03T15:48:07;8;7;
77974;PMS5003;67164;51.202;0.278;2023-03-03T15:50:32;6;6;
77974;PMS5003;67164;51.202;0.278;2023-03-03T15:52:58;5;5;
77974;PMS5003;67164;51.202;0.278;2023-03-03T15:55:25;5;5;
77974;PMS5003;67164;51.202;0.278;2023-03-03T15:57:50;6;6;
77974;PMS5003;67164;51.202;0.278;2023-03-03T16:00:17;4;4;
77974;PMS5003;67164;51.202;0.278;2023-03-03T16:02:42;5;5;
77974;PMS5003;67164;51.202;0.278;2023-03-03T16:05:07;6;6;
77974;PMS5003;67164;51.202;0.278;2023-03-03T16:07:34;6;6;
77974;PMS5003;67164;51.202;0.278;2023-03-03T16:09:59;5;5;
77974;PMS5003;67164;51.202;0.278;2023-03-03T16:12:24;7;5;
77974;PMS5003;67164;51.202;0.278;2023-03-03T16:14:53;4;4;
77974;PMS5003;67164;51.202;0.278;2023-03-03T16:17:17;6;5;
77974;PMS5003;67164;51.202;0.278;2023-03-03T16:19:40;5;4;
77974;PMS5003;67164;51.202;0.278;2023-03-03T16:22:12;5;5;
77974;PMS5003;67164;51.202;0.278;2023-03-03T16:24:33;5;5;
77974;PMS5003;67164;51.202;0.278;2023-03-03T16:26:58;5;4;
77974;PMS5003;67164;51.202;0.278;2023-03-03T16:29:24;4;2;
77974;PMS5003;67164;51.202;0.278;2023-03-03T16:31:49;6;6;
77974;PMS5003;67164;51.202;0.278;2023-03-03T16:34:15;5;5;
77974;PMS5003;67164;51.202;0.278;2023-03-03T16:36:45;5;5;
77974;PMS5003;67164;51.202;0.278;2023-03-03T16:39:08;4;4;
77974;PMS5003;67164;51.202;0.278;2023-03-03T16:41:36;5;5;
77974;PMS5003;67164;51.202;0.278;2023-03-03T16:44:00;6;6;
77974;PMS5003;67164;51.202;0.278;2023-03-03T16:46:27;6;5;
77974;PMS5003;67164;51.202;0.278;2023-03-03T16:48:51;5;4;